createdAt,value
2022-12-04T00:01:06.334Z,12.25
2022-12-04T00:03:32.923Z,12.02
2022-12-04T00:06:04.636Z,11.27
2022-12-04T00:08:31.170Z,10.90
2022-12-04T00:10:58.034Z,9.68
2022-12-04T00:13:24.598Z,11.63
2022-12-04T00:15:51.039Z,12.27
2022-12-04T00:18:17.472Z,10.77
2022-12-04T00:20:43.910Z,13.15
2022-12-04T00:23:10.345Z,12.10
2022-12-04T00:25:41.186Z,13.15
2022-12-04T00:28:08.100Z,11.63
2022-12-04T00:30:34.540Z,14.10
2022-12-04T00:33:00.957Z,11.02
2022-12-04T00:35:27.384Z,10.40
2022-12-04T00:37:53.828Z,13.88
2022-12-04T00:40:20.252Z,12.00
2022-12-04T00:42:46.672Z,13.43
2022-12-04T00:45:13.099Z,14.65
2022-12-04T00:47:39.524Z,14.77
2022-12-04T00:50:06.735Z,11.35
2022-12-04T00:52:33.177Z,13.60
2022-12-04T00:54:59.604Z,12.20
2022-12-04T00:57:26.102Z,12.82
2022-12-04T00:59:52.632Z,13.13
2022-12-04T01:02:19.233Z,13.45
2022-12-04T01:04:45.674Z,14.43
2022-12-04T01:07:12.120Z,12.48
2022-12-04T01:09:38.598Z,14.27
2022-12-04T01:12:05.124Z,13.30
2022-12-04T01:14:31.576Z,14.30
2022-12-04T01:16:58.558Z,15.40
2022-12-04T01:19:25.062Z,13.25
2022-12-04T01:21:51.602Z,13.18
2022-12-04T01:24:18.112Z,16.02
2022-12-04T01:26:44.521Z,13.85
2022-12-04T01:29:11.016Z,11.80
2022-12-04T01:31:37.597Z,14.52
2022-12-04T01:34:04.202Z,14.00
2022-12-04T01:36:30.697Z,14.68
2022-12-04T01:38:57.160Z,14.73
2022-12-04T01:41:27.601Z,12.75
2022-12-04T01:44:26.419Z,12.50
2022-12-04T01:46:58.685Z,11.13
2022-12-04T01:49:37.375Z,13.68
2022-12-04T01:52:09.644Z,12.68
2022-12-04T01:54:39.856Z,10.10
2022-12-04T01:57:11.651Z,12.65
2022-12-04T01:59:50.247Z,13.45
2022-12-04T02:02:22.217Z,13.27
2022-12-04T02:04:48.896Z,11.88
2022-12-04T02:07:15.471Z,12.45
2022-12-04T02:09:43.017Z,12.23
2022-12-04T02:12:38.879Z,13.07
2022-12-04T02:15:17.116Z,11.02
2022-12-04T02:17:52.772Z,12.43
2022-12-04T02:20:47.334Z,16.73
2022-12-04T02:23:39.443Z,10.32
2022-12-04T02:26:37.468Z,13.77
2022-12-04T02:29:12.048Z,14.23
2022-12-04T02:31:47.274Z,14.70
2022-12-04T02:34:22.652Z,12.23
2022-12-04T02:37:00.204Z,12.35
2022-12-04T02:39:57.048Z,12.07
2022-12-04T02:42:38.919Z,13.48
2022-12-04T02:45:13.708Z,12.45
2022-12-04T02:47:43.382Z,13.35
2022-12-04T02:50:13.845Z,12.32
2022-12-04T02:52:46.374Z,15.30
2022-12-04T02:55:20.124Z,13.25
2022-12-04T02:57:51.073Z,12.68
2022-12-04T03:00:18.267Z,13.85
2022-12-04T03:03:02.670Z,15.05
2022-12-04T03:05:41.496Z,13.95
2022-12-04T03:08:14.298Z,13.45
2022-12-04T03:10:48.591Z,14.90
2022-12-04T03:13:47.841Z,13.32
2022-12-04T03:16:41.486Z,13.23
2022-12-04T03:19:10.476Z,12.52
2022-12-04T03:21:41.348Z,13.85
2022-12-04T03:24:24.509Z,14.20
2022-12-04T03:27:02.601Z,16.27
2022-12-04T03:30:01.489Z,21.92
2022-12-04T03:32:45.147Z,17.25
2022-12-04T03:35:18.916Z,15.80
2022-12-04T03:37:55.926Z,16.27
2022-12-04T03:40:48.716Z,11.65
2022-12-04T03:43:22.975Z,16.92
2022-12-04T03:46:01.183Z,13.15
2022-12-04T03:48:42.846Z,13.82
2022-12-04T03:51:18.226Z,11.52
2022-12-04T03:53:50.444Z,10.50
2022-12-04T03:56:27.185Z,9.85
2022-12-04T03:58:57.970Z,11.77
2022-12-04T04:01:30.433Z,10.43
2022-12-04T04:03:59.922Z,10.88
2022-12-04T04:06:34.526Z,13.07
2022-12-04T04:09:08.931Z,11.32
2022-12-04T04:11:43.744Z,14.15
2022-12-04T04:14:45.529Z,12.40
2022-12-04T04:17:38.451Z,13.40
2022-12-04T04:20:29.231Z,12.15
2022-12-04T04:23:18.593Z,12.50
2022-12-04T04:25:47.169Z,13.65
2022-12-04T04:28:32.650Z,11.90
2022-12-04T04:31:33.209Z,12.65
2022-12-04T04:34:10.541Z,12.25
2022-12-04T04:37:15.599Z,13.10
2022-12-04T04:39:57.261Z,12.13
2022-12-04T04:42:32.751Z,14.77
2022-12-04T04:45:08.137Z,11.80
2022-12-04T04:47:47.137Z,13.52
2022-12-04T04:50:15.847Z,17.73
2022-12-04T04:52:46.760Z,15.88
2022-12-04T04:55:16.155Z,11.80
2022-12-04T04:57:43.134Z,11.18
2022-12-04T05:00:15.560Z,15.68
2022-12-04T05:02:42.517Z,13.77
2022-12-04T05:05:09.329Z,11.70
2022-12-04T05:07:35.917Z,13.93
2022-12-04T05:10:02.455Z,13.30
2022-12-04T05:12:28.871Z,14.80
2022-12-04T05:14:55.286Z,12.20
2022-12-04T05:17:21.793Z,11.40
2022-12-04T05:19:55.277Z,13.73
2022-12-04T05:22:29.145Z,14.82
2022-12-04T05:24:55.944Z,13.23
2022-12-04T05:27:24.468Z,12.00
2022-12-04T05:29:56.030Z,12.88
2022-12-04T05:32:24.949Z,12.98
2022-12-04T05:34:52.648Z,15.52
2022-12-04T05:37:19.565Z,13.60
2022-12-04T05:39:46.799Z,12.10
2022-12-04T05:42:13.933Z,14.32
2022-12-04T05:44:40.377Z,15.68
2022-12-04T05:47:07.336Z,11.23
2022-12-04T05:49:34.759Z,15.25
2022-12-04T05:52:02.509Z,13.02
2022-12-04T05:54:28.926Z,14.50
2022-12-04T05:56:55.341Z,14.65
2022-12-04T05:59:22.016Z,11.73
2022-12-04T06:01:48.484Z,13.80
2022-12-04T06:04:15.098Z,13.55
2022-12-04T06:06:41.595Z,13.00
2022-12-04T06:09:09.192Z,12.73
2022-12-04T06:11:37.594Z,12.57
2022-12-04T06:14:06.596Z,10.68
2022-12-04T06:16:38.950Z,13.73
2022-12-04T06:19:09.122Z,12.80
2022-12-04T06:21:37.818Z,21.75
2022-12-04T06:24:04.823Z,13.70
2022-12-04T06:26:31.681Z,16.65
2022-12-04T06:28:59.833Z,11.70
2022-12-04T06:31:28.853Z,14.40
2022-12-04T06:33:57.367Z,14.60
2022-12-04T06:36:24.154Z,13.57
2022-12-04T06:38:51.768Z,15.45
2022-12-04T06:41:20.714Z,18.90
2022-12-04T06:43:48.503Z,35.45
2022-12-04T06:46:18.782Z,13.88
2022-12-04T06:48:45.494Z,19.50
2022-12-04T06:51:32.552Z,11.77
2022-12-04T06:54:00.009Z,14.90
2022-12-04T06:56:29.047Z,13.52
2022-12-04T06:58:57.430Z,14.40
2022-12-04T07:01:30.083Z,13.93
2022-12-04T07:03:57.585Z,12.80
2022-12-04T07:06:27.393Z,15.93
2022-12-04T07:08:58.000Z,14.77
2022-12-04T07:11:24.797Z,11.85
2022-12-04T07:13:52.039Z,12.85
2022-12-04T07:16:20.825Z,14.55
2022-12-04T07:18:50.336Z,14.23
2022-12-04T07:21:19.365Z,13.85
2022-12-04T07:23:49.951Z,12.38
2022-12-04T07:26:17.062Z,13.68
2022-12-04T07:28:45.148Z,12.32
2022-12-04T07:31:15.880Z,12.88
2022-12-04T07:33:43.550Z,12.60
2022-12-04T07:36:15.625Z,16.00
2022-12-04T07:38:42.627Z,14.23
2022-12-04T07:41:11.413Z,14.93
2022-12-04T07:43:38.249Z,12.05
2022-12-04T07:46:12.009Z,14.55
2022-12-04T07:48:38.537Z,14.57
2022-12-04T07:51:13.788Z,15.07
2022-12-04T07:53:40.910Z,28.05
2022-12-04T07:56:08.449Z,13.98
2022-12-04T07:58:35.265Z,13.43
2022-12-04T08:01:16.709Z,15.10
2022-12-04T08:03:48.095Z,13.88
2022-12-04T08:06:17.105Z,15.00
2022-12-04T08:08:43.562Z,13.75
2022-12-04T08:11:13.097Z,15.88
2022-12-04T08:13:39.743Z,14.75
2022-12-04T08:16:08.151Z,12.52
2022-12-04T08:18:35.194Z,12.95
2022-12-04T08:21:09.811Z,15.65
2022-12-04T08:23:37.451Z,14.80
2022-12-04T08:26:05.001Z,15.07
2022-12-04T08:28:32.621Z,16.15
2022-12-04T08:31:04.777Z,13.38
2022-12-04T08:33:31.609Z,14.75
2022-12-04T08:35:58.329Z,15.38
2022-12-04T08:38:24.774Z,14.30
2022-12-04T08:40:51.188Z,15.60
2022-12-04T08:43:17.673Z,18.90
2022-12-04T08:45:44.147Z,18.90
2022-12-04T08:48:10.936Z,16.63
2022-12-04T08:50:37.358Z,14.30
2022-12-04T08:53:03.764Z,15.82
2022-12-04T08:55:30.268Z,13.57
2022-12-04T08:57:56.762Z,13.23
2022-12-04T09:00:25.827Z,14.20
2022-12-04T09:02:52.260Z,12.65
2022-12-04T09:05:18.731Z,12.85
2022-12-04T09:07:45.171Z,13.95
2022-12-04T09:10:12.347Z,12.75
2022-12-04T09:12:39.015Z,11.15
2022-12-04T09:15:06.561Z,16.95
2022-12-04T09:17:36.195Z,14.20
2022-12-04T09:20:04.774Z,13.05
2022-12-04T09:22:57.722Z,13.93
2022-12-04T09:25:19.517Z,17.33
2022-12-04T09:27:45.951Z,15.35
2022-12-04T09:30:13.068Z,14.55
2022-12-04T09:32:39.501Z,14.25
2022-12-04T09:35:06.744Z,13.63
2022-12-04T09:37:33.853Z,15.32
2022-12-04T09:40:00.285Z,13.10
2022-12-04T09:42:47.766Z,14.60
2022-12-04T09:45:22.131Z,13.48
2022-12-04T09:47:52.042Z,13.65
2022-12-04T09:50:20.949Z,15.35
2022-12-04T09:52:56.077Z,13.65
2022-12-04T09:55:25.724Z,14.52
2022-12-04T09:57:59.993Z,11.68
2022-12-04T10:00:29.916Z,15.85
2022-12-04T10:03:03.861Z,13.10
2022-12-04T10:05:58.860Z,14.27
2022-12-04T10:08:29.347Z,14.55
2022-12-04T10:11:13.135Z,10.95
2022-12-04T10:14:26.873Z,11.88
2022-12-04T10:17:20.991Z,12.88
2022-12-04T10:20:12.264Z,10.80
2022-12-04T10:23:15.567Z,12.63
2022-12-04T10:25:43.416Z,11.02
2022-12-04T10:28:23.393Z,14.32
2022-12-04T10:30:52.451Z,13.65
2022-12-04T10:33:32.208Z,11.95
2022-12-04T10:35:59.273Z,13.15
2022-12-04T10:38:30.363Z,13.45
2022-12-04T10:41:14.566Z,11.82
2022-12-04T10:43:46.596Z,10.38
2022-12-04T10:46:16.192Z,10.55
2022-12-04T10:48:46.283Z,12.13
2022-12-04T10:51:19.156Z,10.60
2022-12-04T10:53:46.477Z,14.82
2022-12-04T10:56:14.670Z,14.50
2022-12-04T10:58:41.516Z,11.50
2022-12-04T11:01:15.433Z,13.30
2022-12-04T11:03:46.453Z,12.70
2022-12-04T11:06:14.565Z,16.25
2022-12-04T11:08:44.771Z,13.48
2022-12-04T11:11:14.349Z,15.85
2022-12-04T11:13:41.222Z,12.50
2022-12-04T11:16:08.563Z,15.30
2022-12-04T11:18:47.781Z,11.25
2022-12-04T11:21:17.542Z,13.07
2022-12-04T11:23:47.385Z,13.75
2022-12-04T11:26:14.576Z,16.05
2022-12-04T11:28:54.471Z,13.23
2022-12-04T11:31:23.034Z,10.88
2022-12-04T11:33:56.199Z,14.05
2022-12-04T11:36:28.213Z,12.65
2022-12-04T11:39:06.928Z,11.57
2022-12-04T11:41:34.863Z,13.02
2022-12-04T11:44:01.667Z,11.65
2022-12-04T11:46:31.596Z,11.55
2022-12-04T11:48:59.288Z,13.75
2022-12-04T11:51:44.480Z,13.85
2022-12-04T11:54:35.905Z,21.17
2022-12-04T11:57:02.574Z,13.57
2022-12-04T11:59:37.881Z,13.15
2022-12-04T12:02:10.595Z,13.43
2022-12-04T12:04:55.328Z,11.95
2022-12-04T12:07:40.969Z,14.65
2022-12-04T12:10:15.711Z,14.65
2022-12-04T12:13:03.985Z,15.25
2022-12-04T12:15:49.172Z,13.68
2022-12-04T12:18:33.756Z,10.43
2022-12-04T12:21:27.784Z,12.38
2022-12-04T12:24:19.244Z,10.77
2022-12-04T12:27:05.412Z,13.02
2022-12-04T12:29:55.951Z,12.43
2022-12-04T12:32:45.325Z,10.93
2022-12-04T12:35:38.959Z,12.07
2022-12-04T12:38:12.861Z,11.32
2022-12-04T12:40:47.325Z,11.43
2022-12-04T12:43:22.073Z,9.48
2022-12-04T12:45:56.899Z,11.85
2022-12-04T12:48:32.922Z,10.65
2022-12-04T12:51:29.222Z,11.50
2022-12-04T12:54:01.655Z,14.10
2022-12-04T12:56:44.806Z,10.48
2022-12-04T12:59:21.836Z,11.77
2022-12-04T13:01:57.281Z,11.88
2022-12-04T13:04:40.384Z,13.32
2022-12-04T13:07:18.932Z,11.93
2022-12-04T13:10:07.676Z,11.57
2022-12-04T13:12:44.286Z,13.48
2022-12-04T13:15:18.909Z,15.00
2022-12-04T13:17:48.533Z,13.20
2022-12-04T13:20:22.521Z,12.60
2022-12-04T13:23:10.679Z,12.50
2022-12-04T13:25:48.021Z,10.82
2022-12-04T13:28:29.729Z,14.38
2022-12-04T13:31:38.311Z,13.60
2022-12-04T13:34:04.729Z,12.52
2022-12-04T13:36:49.563Z,15.90
2022-12-04T13:39:29.579Z,13.05
2022-12-04T13:42:01.917Z,14.07
2022-12-04T13:44:31.068Z,13.43
2022-12-04T13:47:01.195Z,13.27
2022-12-04T13:49:31.077Z,11.27
2022-12-04T13:51:59.144Z,15.07
2022-12-04T13:54:27.431Z,13.32
2022-12-04T13:56:57.556Z,14.30
2022-12-04T13:59:35.286Z,12.85
2022-12-04T14:02:22.751Z,12.52
2022-12-04T14:04:56.333Z,11.05
2022-12-04T14:07:37.293Z,12.80
2022-12-04T14:10:38.648Z,12.40
2022-12-04T14:13:28.478Z,12.77
2022-12-04T14:16:07.839Z,14.20
2022-12-04T14:18:34.528Z,15.48
2022-12-04T14:21:04.813Z,13.57
2022-12-04T14:23:37.893Z,11.70
2022-12-04T14:26:05.359Z,12.18
2022-12-04T14:28:34.842Z,11.82
2022-12-04T14:31:05.211Z,12.93
2022-12-04T14:33:37.221Z,11.30
2022-12-04T14:36:06.953Z,11.82
2022-12-04T14:38:34.272Z,12.05
2022-12-04T14:41:01.668Z,11.43
2022-12-04T14:43:39.395Z,12.60
2022-12-04T14:46:14.958Z,13.35
2022-12-04T14:49:06.489Z,13.50
2022-12-04T14:51:41.711Z,11.40
2022-12-04T14:54:49.236Z,11.60
2022-12-04T14:57:31.946Z,11.32
2022-12-04T15:00:00.531Z,9.93
2022-12-04T15:02:41.784Z,16.33
2022-12-04T15:05:24.293Z,13.70
2022-12-04T15:07:54.179Z,17.67
2022-12-04T15:10:47.340Z,14.55
2022-12-04T15:13:34.674Z,14.95
2022-12-04T15:16:17.300Z,15.18
2022-12-04T15:18:57.871Z,15.65
2022-12-04T15:21:37.878Z,10.63
2022-12-04T15:24:09.429Z,12.05
2022-12-04T15:26:37.313Z,12.32
2022-12-04T15:29:07.278Z,11.00
2022-12-04T15:31:46.805Z,10.30
2022-12-04T15:34:16.779Z,14.43
2022-12-04T15:36:48.940Z,11.68
2022-12-04T15:39:25.219Z,10.60
2022-12-04T15:41:52.397Z,11.95
2022-12-04T15:44:30.524Z,11.00
2022-12-04T15:47:00.157Z,12.07
2022-12-04T15:49:32.180Z,9.27
2022-12-04T15:52:12.511Z,9.50
2022-12-04T15:54:50.373Z,10.25
2022-12-04T15:57:23.785Z,8.55
2022-12-04T15:59:51.825Z,9.80
2022-12-04T16:02:35.313Z,10.43
2022-12-04T16:05:29.232Z,9.13
2022-12-04T16:07:58.480Z,10.95
2022-12-04T16:10:26.663Z,8.20
2022-12-04T16:12:55.298Z,8.50
2022-12-04T16:15:23.317Z,8.82
2022-12-04T16:17:50.739Z,8.40
2022-12-04T16:20:17.430Z,9.40
2022-12-04T16:22:44.697Z,9.57
2022-12-04T16:25:13.418Z,8.88
2022-12-04T16:27:39.856Z,9.43
2022-12-04T16:30:06.825Z,10.10
2022-12-04T16:32:34.197Z,10.32
2022-12-04T16:35:00.864Z,8.70
2022-12-04T16:37:30.043Z,9.25
2022-12-04T16:39:56.580Z,9.35
2022-12-04T16:42:29.202Z,9.63
2022-12-04T16:44:56.274Z,8.52
2022-12-04T16:47:22.965Z,10.27
2022-12-04T16:49:50.976Z,10.63
2022-12-04T16:52:18.285Z,8.15
2022-12-04T16:54:44.747Z,9.82
2022-12-04T16:57:11.208Z,7.55
2022-12-04T16:59:37.840Z,7.30
2022-12-04T17:02:12.240Z,7.53
2022-12-04T17:04:38.784Z,8.00
2022-12-04T17:07:05.261Z,5.40
2022-12-04T17:09:31.696Z,7.05
2022-12-04T17:11:58.245Z,8.30
2022-12-04T17:14:24.706Z,7.97
2022-12-04T17:16:51.966Z,7.82
2022-12-04T17:19:18.879Z,7.78
2022-12-04T17:21:46.140Z,11.30
2022-12-04T17:24:12.582Z,9.48
2022-12-04T17:26:39.040Z,7.03
2022-12-04T17:29:05.487Z,12.50
2022-12-04T17:31:31.983Z,11.75
2022-12-04T17:33:58.496Z,9.25
2022-12-04T17:36:27.589Z,11.02
2022-12-04T17:38:56.748Z,9.63
2022-12-04T17:41:23.393Z,9.10
2022-12-04T17:43:50.347Z,10.00
2022-12-04T17:46:21.420Z,13.15
2022-12-04T17:48:48.739Z,8.65
2022-12-04T17:51:18.513Z,11.00
2022-12-04T17:53:45.536Z,9.35
2022-12-04T17:56:17.557Z,10.20
2022-12-04T17:58:44.939Z,7.43
2022-12-04T18:01:17.379Z,8.13
2022-12-04T18:03:48.555Z,10.82
2022-12-04T18:06:18.171Z,11.25
2022-12-04T18:08:49.850Z,8.48
2022-12-04T18:11:21.062Z,9.50
2022-12-04T18:13:59.500Z,8.13
2022-12-04T18:16:28.366Z,6.00
2022-12-04T18:18:56.418Z,9.60
2022-12-04T18:21:22.957Z,8.63
2022-12-04T18:23:49.511Z,8.52
2022-12-04T18:26:19.321Z,8.43
2022-12-04T18:28:46.430Z,7.60
2022-12-04T18:31:14.256Z,7.35
2022-12-04T18:33:42.217Z,8.57
2022-12-04T18:36:14.792Z,7.65
2022-12-04T18:38:41.519Z,8.30
2022-12-04T18:41:10.084Z,7.25
2022-12-04T18:43:38.689Z,6.40
2022-12-04T18:46:08.314Z,6.95
2022-12-04T18:48:36.342Z,9.60
2022-12-04T18:51:24.130Z,7.63
2022-12-04T18:53:52.294Z,7.95
2022-12-04T18:56:18.977Z,8.95
2022-12-04T18:58:46.496Z,8.50
2022-12-04T19:01:15.494Z,7.85
2022-12-04T19:03:42.333Z,7.93
2022-12-04T19:06:08.886Z,9.13
2022-12-04T19:08:40.080Z,12.55
2022-12-04T19:11:13.053Z,9.75
2022-12-04T19:13:39.577Z,9.00
2022-12-04T19:16:12.317Z,6.95
2022-12-04T19:18:38.790Z,10.48
2022-12-04T19:21:08.728Z,9.02
2022-12-04T19:23:35.184Z,10.95
2022-12-04T19:26:01.813Z,9.68
2022-12-04T19:28:28.676Z,8.48
2022-12-04T19:30:56.077Z,8.35
2022-12-04T19:33:23.930Z,10.65
2022-12-04T19:36:00.983Z,9.73
2022-12-04T19:38:27.810Z,11.75
2022-12-04T19:41:04.684Z,8.18
2022-12-04T19:43:31.641Z,10.82
2022-12-04T19:45:58.174Z,10.40
2022-12-04T19:48:24.662Z,10.10
2022-12-04T19:50:51.237Z,9.88
2022-12-04T19:53:17.661Z,15.02
2022-12-04T19:55:44.164Z,8.82
2022-12-04T19:58:10.763Z,11.13
2022-12-04T20:00:37.228Z,9.77
2022-12-04T20:03:04.170Z,11.05
2022-12-04T20:05:30.683Z,10.15
2022-12-04T20:10:23.380Z,9.50
2022-12-04T20:12:49.836Z,7.88
2022-12-04T20:15:16.333Z,10.70
2022-12-04T20:17:42.768Z,8.93
2022-12-04T20:20:09.436Z,8.77
2022-12-04T20:22:36.815Z,11.65
2022-12-04T20:25:03.394Z,8.95
2022-12-04T20:27:29.820Z,12.07
2022-12-04T20:29:56.536Z,10.45
2022-12-04T20:32:23.173Z,11.63
2022-12-04T20:34:49.607Z,10.75
2022-12-04T20:37:16.038Z,9.45
2022-12-04T20:39:42.468Z,8.90
2022-12-04T20:42:08.942Z,8.95
2022-12-04T20:44:35.416Z,8.20
2022-12-04T20:47:01.852Z,9.98
2022-12-04T20:49:28.325Z,10.02
2022-12-04T20:51:54.729Z,9.43
2022-12-04T20:54:23.042Z,7.93
2022-12-04T20:56:51.973Z,9.43
2022-12-04T20:59:21.193Z,19.45
2022-12-04T21:01:49.104Z,9.02
2022-12-04T21:04:17.734Z,8.23
2022-12-04T21:06:45.112Z,8.57
2022-12-04T21:09:23.611Z,9.82
2022-12-04T21:11:55.302Z,9.02
2022-12-04T21:14:43.168Z,10.52
2022-12-04T21:17:16.581Z,10.13
2022-12-04T21:19:43.152Z,8.80
2022-12-04T21:22:09.650Z,9.75
2022-12-04T21:24:38.528Z,6.95
2022-12-04T21:27:09.267Z,11.02
2022-12-04T21:29:37.264Z,9.70
2022-12-04T21:32:05.743Z,8.35
2022-12-04T21:34:32.648Z,9.27
2022-12-04T21:36:59.088Z,9.07
2022-12-04T21:39:25.704Z,12.07
2022-12-04T21:42:11.650Z,8.68
2022-12-04T21:44:38.261Z,7.95
2022-12-04T21:47:04.871Z,9.15
2022-12-04T21:49:31.301Z,8.73
2022-12-04T21:51:58.840Z,9.98
2022-12-04T21:54:28.764Z,9.68
2022-12-04T21:56:56.794Z,11.10
2022-12-04T21:59:24.895Z,8.75
2022-12-04T22:01:52.011Z,8.05
2022-12-04T22:04:18.636Z,8.48
2022-12-04T22:06:45.098Z,9.85
2022-12-04T22:09:12.668Z,8.23
2022-12-04T22:11:43.451Z,8.35
2022-12-04T22:14:11.204Z,5.50
2022-12-04T22:16:41.820Z,8.15
2022-12-04T22:19:10.170Z,6.70
2022-12-04T22:21:36.608Z,8.43
2022-12-04T22:24:04.208Z,7.85
2022-12-04T22:26:31.205Z,9.50
2022-12-04T22:28:57.914Z,9.65
2022-12-04T22:31:27.368Z,8.95
2022-12-04T22:33:55.354Z,8.02
2022-12-04T22:36:24.001Z,6.38
2022-12-04T22:39:09.816Z,6.32
2022-12-04T22:41:37.537Z,5.20
2022-12-04T22:44:04.787Z,5.72
2022-12-04T22:46:31.799Z,7.03
2022-12-04T22:48:59.244Z,6.35
2022-12-04T22:51:27.114Z,6.82
2022-12-04T22:53:57.463Z,6.60
2022-12-04T22:56:25.281Z,8.80
2022-12-04T22:58:52.422Z,8.23
2022-12-04T23:01:21.696Z,9.02
2022-12-04T23:03:48.698Z,9.82
2022-12-04T23:06:16.815Z,11.75
2022-12-04T23:08:44.481Z,8.77
2022-12-04T23:11:17.416Z,9.40
2022-12-04T23:13:49.078Z,8.68
2022-12-04T23:16:19.898Z,7.85
2022-12-04T23:18:47.219Z,9.93
2022-12-04T23:21:15.057Z,7.88
2022-12-04T23:23:43.248Z,8.40
2022-12-04T23:26:17.803Z,8.98
2022-12-04T23:28:44.585Z,8.68
2022-12-04T23:31:12.144Z,7.75
2022-12-04T23:33:39.982Z,9.38
2022-12-04T23:36:08.705Z,7.40
2022-12-04T23:38:37.010Z,7.07
2022-12-04T23:41:07.346Z,7.38
2022-12-04T23:43:34.644Z,7.50
2022-12-04T23:46:04.476Z,8.40
2022-12-04T23:48:33.881Z,7.78
2022-12-04T23:51:00.397Z,6.55
2022-12-04T23:53:27.110Z,6.90
2022-12-04T23:56:19.972Z,6.57
2022-12-04T23:58:48.691Z,8.32
